createdAt,value
2023-03-23T16:01:33.333Z,2.40
2023-03-23T16:06:37.273Z,2.30
2023-03-23T16:11:39.395Z,2.30
2023-03-23T16:16:46.249Z,2.37
2023-03-23T16:21:50.216Z,2.50
2023-03-23T16:26:52.322Z,2.17
2023-03-23T16:31:54.435Z,2.30
2023-03-23T16:36:56.528Z,2.20
2023-03-23T16:41:58.653Z,2.50
2023-03-23T16:47:00.807Z,2.40
2023-03-23T16:52:02.866Z,2.20
2023-03-23T16:57:05.009Z,2.67
2023-03-23T17:02:07.281Z,2.20
2023-03-23T17:07:09.511Z,2.20
2023-03-23T17:12:11.683Z,2.43
2023-03-23T17:17:13.885Z,2.50
2023-03-23T17:22:16.462Z,2.60
2023-03-23T17:27:20.605Z,3.10
2023-03-23T17:32:24.531Z,2.35
2023-03-23T17:37:26.726Z,2.72
2023-03-23T17:42:29.825Z,2.80
2023-03-23T17:47:32.180Z,4.27
2023-03-23T17:52:34.793Z,3.25
2023-03-23T17:57:36.934Z,2.85
2023-03-23T18:02:39.210Z,4.30
2023-03-23T18:07:41.566Z,3.37
2023-03-23T18:12:43.662Z,3.50
2023-03-23T18:17:48.248Z,3.33
2023-03-23T18:22:50.583Z,3.42
2023-03-23T18:27:52.708Z,3.55
2023-03-23T18:32:55.372Z,3.77
2023-03-23T18:37:57.537Z,3.83
2023-03-23T18:43:00.712Z,4.12
2023-03-23T18:48:03.969Z,4.60
2023-03-23T18:53:07.033Z,4.43
2023-03-23T18:58:09.652Z,4.70
2023-03-23T19:03:12.674Z,4.80
2023-03-23T19:08:14.915Z,4.70
2023-03-23T19:13:18.556Z,4.78
2023-03-23T19:18:21.550Z,5.05
2023-03-23T19:23:23.676Z,4.73
2023-03-23T19:33:31.301Z,6.75
2023-03-23T19:38:33.373Z,7.55
2023-03-23T19:43:36.439Z,7.63
2023-03-23T19:48:40.201Z,6.57
2023-03-23T19:53:42.287Z,7.05
2023-03-23T19:58:45.444Z,7.60
2023-03-23T20:03:48.230Z,7.62
2023-03-23T20:08:50.487Z,7.45
2023-03-23T20:13:52.679Z,6.70
2023-03-23T20:18:55.972Z,7.17
2023-03-23T20:23:58.825Z,6.97
2023-03-23T20:29:01.382Z,7.20
2023-03-23T20:34:15.224Z,7.93
